createdAt,value
2023-09-06T00:39:32.688Z,24.60
2023-09-06T00:42:02.203Z,24.60
2023-09-06T00:44:31.231Z,24.50
2023-09-06T00:47:02.357Z,24.40
2023-09-06T00:49:33.329Z,24.40
2023-09-06T00:52:21.050Z,24.40
2023-09-06T00:54:51.608Z,24.40
2023-09-06T00:57:20.934Z,24.30
2023-09-06T00:59:52.770Z,24.40
2023-09-06T01:02:21.944Z,24.30
2023-09-06T01:04:51.126Z,24.30
2023-09-06T01:07:21.455Z,24.30
2023-09-06T01:09:52.093Z,24.30
2023-09-06T01:12:21.590Z,24.30
2023-09-06T01:14:51.176Z,24.30
2023-09-06T01:17:21.773Z,24.20
2023-09-06T01:19:59.526Z,24.20
2023-09-06T01:22:35.950Z,24.20
2023-09-06T01:25:07.309Z,24.20
2023-09-06T01:27:38.149Z,24.20
2023-09-06T01:30:09.470Z,24.20
2023-09-06T01:32:42.288Z,24.10
2023-09-06T01:35:12.020Z,24.10
2023-09-06T01:37:41.222Z,24.10
2023-09-06T01:40:18.896Z,24.10
2023-09-06T01:42:49.303Z,24.10
2023-09-06T01:45:18.982Z,24.00
2023-09-06T01:47:49.576Z,24.00
2023-09-06T01:50:21.171Z,24.00
2023-09-06T01:52:50.705Z,24.00
2023-09-06T01:55:22.374Z,23.90
2023-09-06T01:57:51.615Z,23.90
2023-09-06T02:00:24.072Z,23.90
2023-09-06T02:02:53.190Z,23.90
2023-09-06T02:05:22.485Z,23.90
2023-09-06T02:07:53.357Z,23.80
2023-09-06T02:10:26.187Z,23.80
2023-09-06T02:12:55.574Z,23.80
2023-09-06T02:15:25.241Z,23.80
2023-09-06T02:17:54.797Z,23.70
2023-09-06T02:20:28.095Z,23.70
2023-09-06T02:22:58.217Z,23.70
2023-09-06T02:25:31.764Z,23.60
2023-09-06T02:28:05.671Z,23.60
2023-09-06T02:30:37.834Z,23.60
2023-09-06T02:33:08.944Z,23.60
2023-09-06T02:35:41.897Z,23.60
2023-09-06T02:38:13.437Z,23.50
2023-09-06T02:40:44.795Z,23.50
2023-09-06T02:43:15.121Z,23.50
2023-09-06T02:45:51.557Z,23.50
2023-09-06T02:48:20.960Z,23.50
2023-09-06T02:50:53.224Z,23.40
2023-09-06T02:53:23.020Z,23.40
2023-09-06T02:55:55.194Z,23.40
2023-09-06T02:58:26.807Z,23.30
2023-09-06T03:01:00.105Z,23.30
2023-09-06T03:03:30.417Z,23.30
2023-09-06T03:06:05.459Z,23.30
2023-09-06T03:08:38.094Z,23.30
2023-09-06T03:11:13.167Z,23.30
2023-09-06T03:13:42.645Z,23.30
2023-09-06T03:16:14.724Z,23.20
2023-09-06T03:18:46.773Z,23.20
2023-09-06T03:21:17.401Z,23.20
2023-09-06T03:23:47.465Z,23.20
2023-09-06T03:26:19.444Z,23.20
2023-09-06T03:28:48.925Z,23.10
2023-09-06T03:31:20.764Z,23.10
2023-09-06T03:33:50.084Z,23.10
2023-09-06T03:36:19.616Z,23.00
2023-09-06T03:38:48.798Z,23.10
2023-09-06T03:41:19.525Z,23.10
2023-09-06T03:43:48.704Z,23.10
2023-09-06T03:46:21.037Z,23.00
2023-09-06T03:49:08.111Z,23.00
2023-09-06T03:51:37.966Z,23.00
2023-09-06T03:54:10.661Z,23.00
2023-09-06T03:56:42.812Z,23.00
2023-09-06T03:59:12.857Z,23.00
2023-09-06T04:01:45.414Z,22.90
2023-09-06T04:04:15.695Z,22.90
2023-09-06T04:06:45.320Z,22.90
2023-09-06T04:09:19.716Z,22.90
2023-09-06T04:11:50.530Z,22.90
2023-09-06T04:14:19.615Z,22.90
2023-09-06T04:16:49.895Z,22.90
2023-09-06T04:19:20.969Z,22.80
2023-09-06T04:21:50.462Z,22.80
2023-09-06T04:24:21.881Z,22.80
2023-09-06T04:26:52.463Z,22.80
2023-09-06T04:29:21.708Z,22.80
2023-09-06T04:31:50.988Z,22.80
2023-09-06T04:34:20.576Z,22.70
2023-09-06T04:36:50.758Z,22.70
2023-09-06T04:39:21.681Z,22.70
2023-09-06T04:41:52.358Z,22.70
2023-09-06T04:44:25.906Z,22.70
2023-09-06T04:46:56.459Z,22.70
2023-09-06T04:49:26.202Z,22.70
2023-09-06T04:51:55.326Z,22.60
2023-09-06T04:54:24.857Z,22.60
2023-09-06T04:56:55.551Z,22.60
2023-09-06T04:59:26.708Z,22.60
2023-09-06T05:01:55.850Z,22.60
2023-09-06T05:04:25.953Z,22.60
2023-09-06T05:06:55.589Z,22.50
2023-09-06T05:09:25.334Z,22.50
2023-09-06T05:11:56.020Z,22.50
2023-09-06T05:14:25.236Z,22.50
2023-09-06T05:16:54.506Z,22.50
2023-09-06T05:19:28.810Z,22.50
2023-09-06T05:21:58.624Z,22.40
2023-09-06T05:24:28.094Z,22.40
2023-09-06T05:26:59.662Z,22.40
2023-09-06T05:29:30.743Z,22.40
2023-09-06T05:32:00.396Z,22.40
2023-09-06T05:34:30.830Z,22.40
2023-09-06T05:37:00.942Z,22.30
2023-09-06T05:39:32.143Z,22.40
2023-09-06T05:42:03.196Z,22.30
2023-09-06T05:44:33.154Z,22.30
2023-09-06T05:47:02.519Z,22.30
2023-09-06T05:49:31.832Z,22.30
2023-09-06T05:52:01.523Z,22.30
2023-09-06T05:54:30.826Z,22.30
2023-09-06T05:57:00.103Z,22.30
2023-09-06T05:59:31.703Z,22.30
2023-09-06T06:02:01.067Z,22.30
2023-09-06T06:04:30.377Z,22.30
2023-09-06T06:06:59.603Z,22.30
2023-09-06T06:09:29.045Z,22.30
2023-09-06T06:11:58.232Z,22.30
2023-09-06T06:14:29.552Z,22.30
2023-09-06T06:17:00.181Z,22.30
2023-09-06T06:19:29.451Z,22.30
2023-09-06T06:21:59.360Z,22.30
2023-09-06T06:24:29.556Z,22.30
2023-09-06T06:26:59.524Z,22.30
2023-09-06T06:29:29.545Z,22.40
2023-09-06T06:32:00.468Z,22.40
2023-09-06T06:34:29.716Z,22.40
2023-09-06T06:36:58.816Z,22.40
2023-09-06T06:39:30.821Z,22.40
2023-09-06T06:42:00.042Z,22.40
2023-09-06T06:44:35.489Z,22.50
2023-09-06T06:47:06.490Z,22.50
2023-09-06T06:49:35.663Z,22.50
2023-09-06T06:52:04.870Z,22.50
2023-09-06T06:54:34.096Z,22.60
2023-09-06T06:57:03.623Z,22.60
2023-09-06T06:59:32.864Z,22.60
2023-09-06T07:02:02.044Z,22.60
2023-09-06T07:04:32.672Z,22.70
2023-09-06T07:07:01.876Z,22.70
2023-09-06T07:09:30.962Z,22.70
2023-09-06T07:12:00.196Z,22.80
2023-09-06T07:14:29.443Z,22.80
2023-09-06T07:17:00.284Z,22.80
2023-09-06T07:19:29.750Z,22.80
2023-09-06T07:22:01.724Z,22.90
2023-09-06T07:24:30.868Z,22.90
2023-09-06T07:27:00.036Z,23.00
2023-09-06T07:29:29.226Z,23.00
2023-09-06T07:31:58.834Z,23.10
2023-09-06T07:34:28.071Z,23.10
2023-09-06T07:36:57.270Z,23.10
2023-09-06T07:39:27.843Z,23.20
2023-09-06T07:41:57.497Z,23.20
2023-09-06T07:44:30.626Z,23.30
2023-09-06T07:46:59.882Z,23.30
2023-09-06T07:49:31.951Z,23.40
2023-09-06T07:52:06.325Z,23.40
2023-09-06T07:54:37.243Z,23.50
2023-09-06T07:57:06.996Z,23.50
2023-09-06T07:59:36.206Z,23.60
2023-09-06T08:02:05.791Z,23.70
2023-09-06T08:04:35.020Z,23.70
2023-09-06T08:07:05.042Z,23.80
2023-09-06T08:09:34.282Z,23.80
2023-09-06T08:12:05.507Z,23.90
2023-09-06T08:14:34.757Z,24.00
2023-09-06T08:17:04.303Z,24.00
2023-09-06T08:19:34.351Z,24.10
2023-09-06T08:22:03.527Z,24.10
2023-09-06T08:24:33.353Z,24.20
2023-09-06T08:27:02.572Z,24.20
2023-09-06T08:29:33.183Z,24.30
2023-09-06T08:32:02.468Z,24.40
2023-09-06T08:34:31.976Z,24.40
2023-09-06T08:37:01.083Z,24.50
2023-09-06T08:39:30.253Z,24.60
2023-09-06T08:42:00.241Z,24.60
2023-09-06T08:44:31.207Z,24.70
2023-09-06T08:47:05.825Z,24.70
2023-09-06T08:49:35.742Z,24.80
2023-09-06T08:52:05.650Z,24.90
2023-09-06T08:54:36.016Z,25.00
2023-09-06T08:57:06.582Z,25.00
2023-09-06T08:59:36.152Z,25.10
2023-09-06T09:02:06.727Z,25.20
2023-09-06T09:04:42.336Z,25.20
2023-09-06T09:07:12.221Z,25.30
2023-09-06T09:09:58.724Z,25.40
2023-09-06T09:12:28.128Z,25.40
2023-09-06T09:15:02.437Z,25.50
2023-09-06T09:17:53.293Z,25.50
2023-09-06T09:20:29.128Z,25.60
2023-09-06T09:23:03.583Z,25.70
2023-09-06T09:25:37.533Z,25.80
2023-09-06T09:28:09.762Z,25.80
2023-09-06T09:30:41.134Z,25.90
2023-09-06T09:33:12.209Z,26.00
2023-09-06T09:35:42.206Z,26.00
2023-09-06T09:38:13.186Z,26.10
2023-09-06T09:40:52.978Z,26.20
2023-09-06T09:43:23.305Z,26.20
2023-09-06T09:45:52.866Z,26.30
2023-09-06T09:48:30.497Z,26.40
2023-09-06T09:51:02.079Z,26.40
2023-09-06T09:53:33.967Z,26.50
2023-09-06T09:56:08.438Z,26.50
2023-09-06T09:58:40.431Z,26.70
2023-09-06T10:01:12.313Z,26.70
2023-09-06T10:03:44.046Z,26.80
2023-09-06T10:06:14.125Z,26.80
2023-09-06T10:08:47.474Z,26.90
2023-09-06T10:11:20.791Z,26.90
2023-09-06T10:13:50.665Z,27.00
2023-09-06T10:16:21.509Z,27.00
2023-09-06T10:18:52.850Z,27.10
2023-09-06T10:21:22.508Z,27.10
2023-09-06T10:23:51.860Z,27.20
2023-09-06T10:26:28.299Z,27.20
2023-09-06T10:29:02.303Z,27.30
2023-09-06T10:31:47.844Z,27.30
2023-09-06T10:34:19.277Z,27.40
2023-09-06T10:36:59.029Z,27.50
2023-09-06T10:39:30.033Z,27.50
2023-09-06T10:42:30.069Z,27.50
2023-09-06T10:45:12.925Z,27.60
2023-09-06T10:47:43.712Z,27.70
2023-09-06T10:50:19.510Z,27.70
2023-09-06T10:52:54.459Z,27.70
2023-09-06T10:55:25.634Z,27.80
2023-09-06T10:57:56.412Z,27.80
2023-09-06T11:00:32.344Z,27.90
2023-09-06T11:03:22.258Z,27.90
2023-09-06T11:05:58.236Z,28.00
2023-09-06T11:08:31.672Z,28.00
2023-09-06T11:11:09.219Z,28.00
2023-09-06T11:13:40.386Z,28.00
2023-09-06T11:16:15.111Z,28.10
2023-09-06T11:18:49.167Z,28.10
2023-09-06T11:21:21.169Z,28.20
2023-09-06T11:23:51.347Z,28.20
2023-09-06T11:26:21.895Z,28.20
2023-09-06T11:29:02.631Z,28.20
2023-09-06T11:31:34.740Z,28.30
2023-09-06T11:34:06.922Z,28.30
2023-09-06T11:36:38.371Z,28.30
2023-09-06T11:39:17.128Z,28.40
2023-09-06T11:41:48.880Z,28.40
2023-09-06T11:44:20.551Z,28.40
2023-09-06T11:46:50.749Z,28.40
2023-09-06T11:49:22.814Z,28.50
2023-09-06T11:51:55.702Z,28.50
2023-09-06T11:54:28.424Z,28.50
2023-09-06T11:56:59.136Z,28.50
2023-09-06T11:59:33.176Z,28.60
2023-09-06T12:02:04.419Z,28.60
2023-09-06T12:04:33.833Z,28.60
2023-09-06T12:07:09.300Z,28.60
2023-09-06T12:09:39.106Z,28.60
2023-09-06T12:12:09.173Z,28.60
2023-09-06T12:14:39.479Z,28.70
2023-09-06T12:17:09.077Z,28.70
2023-09-06T12:19:38.610Z,28.70
2023-09-06T12:22:15.689Z,28.70
2023-09-06T12:24:47.466Z,28.70
2023-09-06T12:27:19.688Z,28.70
2023-09-06T12:29:48.816Z,28.70
2023-09-06T12:32:18.587Z,28.70
2023-09-06T12:34:47.907Z,28.70
2023-09-06T12:37:19.159Z,28.80
2023-09-06T12:39:48.758Z,28.80
2023-09-06T12:42:18.434Z,28.80
2023-09-06T12:44:47.651Z,28.80
2023-09-06T12:47:17.722Z,28.80
2023-09-06T12:49:46.935Z,28.90
2023-09-06T12:52:21.460Z,28.80
2023-09-06T12:54:50.636Z,28.80
2023-09-06T12:57:19.873Z,28.90
2023-09-06T12:59:49.170Z,28.90
2023-09-06T13:02:18.842Z,28.90
2023-09-06T13:04:49.075Z,28.90
2023-09-06T13:07:19.870Z,28.90
2023-09-06T13:09:48.954Z,28.90
2023-09-06T13:12:18.011Z,28.90
2023-09-06T13:14:47.136Z,28.90
2023-09-06T13:17:16.659Z,28.90
2023-09-06T13:19:46.059Z,28.90
2023-09-06T13:22:15.187Z,28.90
2023-09-06T13:24:46.229Z,28.90
2023-09-06T13:27:15.283Z,29.00
2023-09-06T13:29:44.553Z,28.90
2023-09-06T13:32:14.318Z,29.00
2023-09-06T13:34:43.644Z,29.00
2023-09-06T13:37:12.807Z,29.00
2023-09-06T13:39:44.236Z,29.00
2023-09-06T13:42:15.195Z,29.00
2023-09-06T13:44:44.310Z,29.00
2023-09-06T13:47:17.669Z,29.00
2023-09-06T13:49:46.985Z,29.00
2023-09-06T13:52:16.824Z,29.00
2023-09-06T13:54:45.985Z,29.00
2023-09-06T13:57:16.570Z,29.00
2023-09-06T13:59:45.641Z,29.00
2023-09-06T14:02:15.069Z,29.10
2023-09-06T14:04:44.399Z,29.00
2023-09-06T14:07:13.592Z,29.10
2023-09-06T14:09:42.627Z,29.10
2023-09-06T14:12:11.724Z,29.10
2023-09-06T14:14:42.186Z,29.10
2023-09-06T14:17:11.408Z,29.10
2023-09-06T14:19:40.580Z,29.10
2023-09-06T14:22:11.583Z,29.10
2023-09-06T14:24:41.056Z,29.10
2023-09-06T14:27:10.174Z,29.20
2023-09-06T14:29:39.255Z,29.10
2023-09-06T14:32:09.913Z,29.20
2023-09-06T14:34:39.208Z,29.20
2023-09-06T14:37:08.338Z,29.20
2023-09-06T14:39:38.796Z,29.20
2023-09-06T14:42:08.565Z,29.20
2023-09-06T14:44:37.894Z,29.20
2023-09-06T14:47:09.433Z,29.20
2023-09-06T14:49:39.959Z,29.20
2023-09-06T14:52:09.117Z,29.20
2023-09-06T14:54:38.208Z,29.30
2023-09-06T14:57:07.863Z,29.30
2023-09-06T14:59:39.172Z,29.30
2023-09-06T15:02:10.288Z,29.30
2023-09-06T15:04:39.762Z,29.30
2023-09-06T15:07:08.738Z,29.30
2023-09-06T15:09:38.659Z,29.30
2023-09-06T15:12:08.682Z,29.30
2023-09-06T15:14:37.876Z,29.20
2023-09-06T15:17:10.946Z,29.30
2023-09-06T15:19:41.037Z,29.30
2023-09-06T15:22:10.219Z,29.30
2023-09-06T15:24:39.351Z,29.30
2023-09-06T15:27:08.588Z,29.30
2023-09-06T15:29:44.746Z,29.30
2023-09-06T15:32:15.361Z,29.30
2023-09-06T15:34:44.904Z,29.30
2023-09-06T15:37:14.428Z,29.30
2023-09-06T15:39:44.942Z,29.30
2023-09-06T15:42:15.010Z,29.30
2023-09-06T15:44:44.774Z,29.30
2023-09-06T15:47:16.094Z,29.30
2023-09-06T15:49:46.177Z,29.30
2023-09-06T15:52:15.309Z,29.30
2023-09-06T15:54:45.384Z,29.30
2023-09-06T15:57:14.576Z,29.30
2023-09-06T15:59:43.746Z,29.30
2023-09-06T16:02:14.537Z,29.20
2023-09-06T16:04:43.839Z,29.20
2023-09-06T16:07:13.029Z,29.30
2023-09-06T16:09:42.930Z,29.30
2023-09-06T16:12:12.090Z,29.20
2023-09-06T16:14:42.164Z,29.30
2023-09-06T16:17:11.555Z,29.30
2023-09-06T16:19:42.173Z,29.30
2023-09-06T16:22:11.375Z,29.30
2023-09-06T16:24:40.560Z,29.30
2023-09-06T16:27:09.768Z,29.20
2023-09-06T16:29:39.164Z,29.30
2023-09-06T16:32:08.406Z,29.30
2023-09-06T16:34:37.652Z,29.30
2023-09-06T16:37:08.268Z,29.30
2023-09-06T16:39:37.655Z,29.30
2023-09-06T16:42:07.934Z,29.30
2023-09-06T16:44:39.235Z,29.30
2023-09-06T16:47:08.431Z,29.20
2023-09-06T16:49:37.908Z,29.30
2023-09-06T16:52:09.225Z,29.30
2023-09-06T16:54:38.871Z,29.20
2023-09-06T16:57:08.104Z,29.30
2023-09-06T16:59:37.350Z,29.30
2023-09-06T17:02:07.218Z,29.20
2023-09-06T17:04:36.357Z,29.20
2023-09-06T17:07:07.124Z,29.20
2023-09-06T17:09:37.342Z,29.20
2023-09-06T17:12:07.199Z,29.20
2023-09-06T17:14:37.153Z,29.20
2023-09-06T17:17:06.846Z,29.20
2023-09-06T17:19:36.312Z,29.20
2023-09-06T17:22:05.696Z,29.20
2023-09-06T17:24:37.223Z,29.20
2023-09-06T17:27:09.609Z,29.20
2023-09-06T17:29:41.221Z,29.10
2023-09-06T17:32:10.847Z,29.10
2023-09-06T17:34:48.892Z,29.10
2023-09-06T17:37:18.069Z,29.10
2023-09-06T17:39:48.590Z,29.10
2023-09-06T17:42:17.610Z,29.10
2023-09-06T17:44:46.696Z,29.10
2023-09-06T17:47:15.766Z,29.10
2023-09-06T17:49:44.907Z,29.00
2023-09-06T17:52:14.078Z,29.00
2023-09-06T17:54:43.205Z,29.00
2023-09-06T17:57:14.908Z,29.00
2023-09-06T17:59:44.231Z,29.00
2023-09-06T18:02:13.472Z,28.90
2023-09-06T18:04:42.945Z,29.00
2023-09-06T18:07:12.960Z,28.90
2023-09-06T18:09:42.017Z,28.90
2023-09-06T18:12:11.548Z,28.90
2023-09-06T18:14:43.660Z,28.90
2023-09-06T18:17:12.987Z,28.80
2023-09-06T18:19:42.219Z,28.80
2023-09-06T18:22:13.070Z,28.80
2023-09-06T18:24:42.211Z,28.80
2023-09-06T18:27:12.009Z,28.70
2023-09-06T18:29:42.529Z,28.70
2023-09-06T18:32:11.750Z,28.70
2023-09-06T18:34:41.109Z,28.60
2023-09-06T18:37:10.201Z,28.60
2023-09-06T18:39:41.193Z,28.60
2023-09-06T18:42:10.604Z,28.60
2023-09-06T18:44:41.220Z,28.60
2023-09-06T18:47:10.802Z,28.60
2023-09-06T18:49:40.726Z,28.50
2023-09-06T18:52:10.560Z,28.50
2023-09-06T18:54:40.034Z,28.50
2023-09-06T18:57:12.012Z,28.40
2023-09-06T18:59:42.664Z,28.40
2023-09-06T19:02:11.872Z,28.40
2023-09-06T19:04:44.913Z,28.40
2023-09-06T19:07:15.456Z,28.30
2023-09-06T19:09:46.738Z,28.30
2023-09-06T19:12:17.017Z,28.30
2023-09-06T19:14:47.639Z,28.30
2023-09-06T19:17:20.298Z,28.20
2023-09-06T19:19:49.602Z,28.20
2023-09-06T19:22:18.741Z,28.10
2023-09-06T19:24:47.901Z,28.10
2023-09-06T19:27:17.222Z,28.10
2023-09-06T19:29:50.623Z,28.00
2023-09-06T19:32:21.538Z,28.00
2023-09-06T19:34:49.710Z,28.00
2023-09-06T19:37:21.826Z,28.00
2023-09-06T19:39:51.682Z,27.90
2023-09-06T19:42:22.208Z,27.90
2023-09-06T19:44:54.888Z,27.90
2023-09-06T19:47:24.715Z,27.80
2023-09-06T19:49:53.962Z,27.80
2023-09-06T19:52:23.163Z,27.70
2023-09-06T19:54:52.363Z,27.70
2023-09-06T19:57:21.506Z,27.70
2023-09-06T19:59:52.538Z,27.70
2023-09-06T20:02:23.401Z,27.60
2023-09-06T20:04:53.223Z,27.60
2023-09-06T20:07:22.447Z,27.50
2023-09-06T20:09:51.819Z,27.50
2023-09-06T20:12:21.328Z,27.50
2023-09-06T20:14:53.499Z,27.40
2023-09-06T20:17:24.343Z,27.40
2023-09-06T20:19:55.170Z,27.40
2023-09-06T20:22:25.798Z,27.30
2023-09-06T20:24:55.152Z,27.30
2023-09-06T20:27:24.463Z,27.30
2023-09-06T20:29:53.728Z,27.20
2023-09-06T20:32:24.521Z,27.20
2023-09-06T20:34:53.772Z,27.20
2023-09-06T20:37:23.029Z,27.10
2023-09-06T20:39:52.230Z,27.10
2023-09-06T20:42:21.586Z,27.00
2023-09-06T20:44:50.810Z,27.00
2023-09-06T20:47:20.365Z,27.00
2023-09-06T20:49:57.133Z,26.90
2023-09-06T20:52:26.521Z,26.90
2023-09-06T20:54:57.026Z,26.90
2023-09-06T20:57:26.272Z,26.80
2023-09-06T20:59:55.541Z,26.80
2023-09-06T21:02:24.810Z,26.80
2023-09-06T21:04:55.808Z,26.70
2023-09-06T21:07:25.202Z,26.70
2023-09-06T21:09:54.708Z,26.70
2023-09-06T21:12:24.049Z,26.60
2023-09-06T21:14:56.377Z,26.60
2023-09-06T21:17:27.950Z,26.60
2023-09-06T21:19:58.657Z,26.50
2023-09-06T21:22:27.855Z,26.50
2023-09-06T21:24:59.298Z,26.50
2023-09-06T21:27:28.471Z,26.40
2023-09-06T21:29:57.699Z,26.40
2023-09-06T21:32:26.852Z,26.40
2023-09-06T21:35:00.004Z,26.30
2023-09-06T21:37:29.171Z,26.30
2023-09-06T21:39:59.534Z,26.30
2023-09-06T21:42:28.788Z,26.20
2023-09-06T21:44:58.085Z,26.20
2023-09-06T21:47:31.226Z,26.20
2023-09-06T21:50:05.172Z,26.10
2023-09-06T21:52:35.798Z,26.10
2023-09-06T21:55:05.564Z,26.10
2023-09-06T21:57:34.923Z,26.00
2023-09-06T22:00:10.309Z,26.00
2023-09-06T22:02:58.062Z,26.00
2023-09-06T22:05:47.171Z,26.00
2023-09-06T22:08:54.616Z,25.90
2023-09-06T22:11:44.780Z,25.90
2023-09-06T22:14:16.666Z,25.90
2023-09-06T22:16:46.913Z,25.80
2023-09-06T22:19:17.372Z,25.80
2023-09-06T22:21:48.093Z,25.80
2023-09-06T22:24:17.341Z,25.70
2023-09-06T22:26:46.800Z,25.70
2023-09-06T22:29:16.588Z,25.70
2023-09-06T22:31:46.958Z,25.60
2023-09-06T22:34:16.513Z,25.60
2023-09-06T22:36:46.203Z,25.60
2023-09-06T22:39:16.992Z,25.60
2023-09-06T22:41:46.574Z,25.50
2023-09-06T22:44:15.973Z,25.50
2023-09-06T22:46:45.192Z,25.50
2023-09-06T22:49:14.448Z,25.50
2023-09-06T22:51:45.046Z,25.50
2023-09-06T22:54:14.319Z,25.40
2023-09-06T22:56:46.158Z,25.40
2023-09-06T22:59:15.366Z,25.40
2023-09-06T23:01:45.251Z,25.30
2023-09-06T23:04:14.755Z,25.30
2023-09-06T23:06:44.271Z,25.30
2023-09-06T23:09:13.748Z,25.30
2023-09-06T23:11:51.369Z,25.20
2023-09-06T23:14:21.677Z,25.20
2023-09-06T23:16:51.588Z,25.20
2023-09-06T23:19:26.281Z,25.20
2023-09-06T23:22:06.285Z,25.10
2023-09-06T23:24:39.115Z,25.10
2023-09-06T23:27:17.880Z,25.10
2023-09-06T23:29:51.944Z,25.10
2023-09-06T23:32:21.780Z,25.00
2023-09-06T23:34:53.558Z,25.00
2023-09-06T23:37:23.192Z,25.00
2023-09-06T23:39:53.716Z,24.90
2023-09-06T23:42:24.259Z,24.90
2023-09-06T23:44:53.548Z,24.90
2023-09-06T23:47:22.935Z,24.90
2023-09-06T23:49:52.429Z,24.90
2023-09-06T23:52:23.790Z,24.80
2023-09-06T23:54:53.366Z,24.80
2023-09-06T23:57:23.858Z,24.80
2023-09-06T23:59:53.290Z,24.70
